Crossroads Center, Iowa
Current Conditions -  °F | °C
As of 1:15 PM on Thursday 18 Dec 2014 (Local Time) from KFOD Reporting Station
Overcast Overcast  
Wind Chill: 25°   Ceiling: 6500
Heat Index: 25°   Visibility: 10mi
Dew Point: 18°   Wind: 0mph
Humidity: 74%   Direction: NA
Pressure: 30.23"   Gusts: NA
Location:  42.5075°N, 94.2531°W
Report Text: KFOD 181915Z AUTO 00000KT 10SM OVC065 M04/M08 A3023 RMK AO1
Loading
Personal Weather Stations






























Interactive Weather Map New forecast layout! Learn more

10-Day Weather Forecast

Advertisements
Track Severe Weather on mobile